Time;durP1;ratioP1;P1;durP2;ratioP2;P2;SDS_P1;SDS_P2;PMS_P1;PMS_P2;Temp;Humidity;BMP_temperature;BMP_pressure;BME280_temperature;BME280_humidity;BME280_pressure;Samples;Min_cycle;Max_cycle;Signal;HPM_P1;HPM_P2
2021/11/26 00:01:48;;;;;;;;;;;19.50;40.90;;;;;;5137928;27;19908;-59
2021/11/26 00:04:13;;;;;;;;;;;19.50;40.90;;;;;;5138087;27;19923;-59
2021/11/26 00:06:39;;;;;;;;;;;19.50;40.90;;;;;;5137813;27;19911;-60
2021/11/26 00:09:05;;;;;;;;;;;19.50;40.90;;;;;;5138028;27;19912;-60
2021/11/26 00:11:30;;;;;;;;;;;19.50;40.90;;;;;;5137980;27;20258;-59
2021/11/26 00:16:41;;;;;;;;;;;19.50;40.90;;;;;;5138174;27;20377;-59
2021/11/26 00:34:22;;;;;;;;;;;19.40;40.90;;;;;;5137204;27;20403;-59
2021/11/26 00:36:47;;;;;;;;;;;19.40;40.90;;;;;;5136620;27;19907;-58
2021/11/26 00:39:13;;;;;;;;;;;19.40;40.90;;;;;;5137129;27;20282;-59
2021/11/26 00:41:38;;;;;;;;;;;19.40;40.90;;;;;;5137279;27;20270;-59
2021/11/26 00:44:04;;;;;;;;;;;19.40;40.90;;;;;;5137384;27;19958;-59
2021/11/26 00:46:30;;;;;;;;;;;19.40;40.90;;;;;;5137022;27;20274;-59
2021/11/26 00:48:55;;;;;;;;;;;19.40;40.90;;;;;;5137267;27;19915;-58
2021/11/26 00:51:21;;;;;;;;;;;19.40;40.90;;;;;;5137249;27;19960;-59
2021/11/26 00:53:47;;;;;;;;;;;19.40;40.90;;;;;;5136937;27;19993;-60
2021/11/26 00:56:12;;;;;;;;;;;19.40;40.90;;;;;;5136675;27;19925;-59
2021/11/26 00:58:38;;;;;;;;;;;19.40;40.90;;;;;;5136561;27;20002;-59
2021/11/26 01:01:03;;;;;;;;;;;19.40;40.90;;;;;;5136860;27;19935;-59
2021/11/26 01:03:29;;;;;;;;;;;19.40;40.90;;;;;;5136993;27;19930;-58
2021/11/26 01:05:54;;;;;;;;;;;19.40;40.90;;;;;;5137021;27;19912;-59
2021/11/26 01:08:20;;;;;;;;;;;19.40;40.90;;;;;;5136902;27;20000;-59
2021/11/26 01:10:46;;;;;;;;;;;19.40;40.90;;;;;;5136786;27;19907;-59
2021/11/26 01:13:12;;;;;;;;;;;19.30;40.90;;;;;;5136610;27;20105;-59
2021/11/26 01:15:39;;;;;;;;;;;19.30;40.90;;;;;;5136659;27;19913;-60
2021/11/26 01:18:05;;;;;;;;;;;19.30;40.90;;;;;;5136501;27;19970;-58
2021/11/26 01:20:31;;;;;;;;;;;19.40;40.90;;;;;;5136693;27;20299;-59
2021/11/26 01:22:58;;;;;;;;;;;19.40;40.90;;;;;;5136732;27;19907;-59
2021/11/26 01:25:23;;;;;;;;;;;19.40;40.80;;;;;;5136236;27;20350;-59
2021/11/26 01:27:49;;;;;;;;;;;19.30;40.90;;;;;;5136483;27;19907;-59
2021/11/26 01:32:51;;;;;;;;;;;19.30;40.90;;;;;;5136192;27;19942;-59
2021/11/26 01:35:16;;;;;;;;;;;19.30;40.90;;;;;;5136293;27;19907;-59
2021/11/26 01:37:42;;;;;;;;;;;19.30;40.80;;;;;;5135980;27;20282;-59
2021/11/26 01:40:07;;;;;;;;;;;19.30;40.90;;;;;;5136041;27;19914;-59
2021/11/26 01:42:33;;;;;;;;;;;19.30;40.80;;;;;;5135942;27;19907;-60
2021/11/26 01:44:59;;;;;;;;;;;19.30;40.90;;;;;;5136155;27;20009;-59
2021/11/26 01:47:25;;;;;;;;;;;19.30;40.90;;;;;;5135873;27;19918;-59
2021/11/26 01:49:50;;;;;;;;;;;19.30;40.90;;;;;;5135848;27;19952;-58
2021/11/26 01:52:16;;;;;;;;;;;19.30;40.90;;;;;;5136052;27;19908;-59
2021/11/26 01:54:41;;;;;;;;;;;19.30;40.90;;;;;;5135731;27;19907;-59
2021/11/26 01:57:07;;;;;;;;;;;19.30;40.90;;;;;;5135440;27;20024;-59
2021/11/26 01:59:32;;;;;;;;;;;19.30;40.90;;;;;;5135473;27;19920;-59
2021/11/26 02:01:58;;;;;;;;;;;19.30;40.90;;;;;;5135505;27;19915;-59
2021/11/26 02:04:23;;;;;;;;;;;19.30;40.90;;;;;;5135777;27;19908;-58
2021/11/26 02:06:49;;;;;;;;;;;19.30;40.90;;;;;;5135512;27;19908;-59
2021/11/26 02:09:14;;;;;;;;;;;19.30;40.90;;;;;;5135430;27;20010;-59
2021/11/26 02:11:40;;;;;;;;;;;19.30;40.90;;;;;;5135674;27;19908;-59
2021/11/26 02:14:05;;;;;;;;;;;19.30;40.90;;;;;;5135295;27;19908;-60
2021/11/26 02:16:40;;;;;;;;;;;19.30;40.90;;;;;;5135554;27;19907;-60
2021/11/26 02:19:05;;;;;;;;;;;19.30;40.90;;;;;;5135165;27;20378;-58
2021/11/26 02:21:31;;;;;;;;;;;19.30;40.90;;;;;;5135113;27;19907;-59
2021/11/26 02:23:56;;;;;;;;;;;19.30;40.90;;;;;;5135450;27;19908;-60
2021/11/26 02:26:22;;;;;;;;;;;19.30;41.00;;;;;;5135242;27;19908;-59
2021/11/26 02:28:47;;;;;;;;;;;19.20;41.00;;;;;;5135107;27;20377;-59
2021/11/26 02:31:12;;;;;;;;;;;19.20;40.90;;;;;;5135007;27;19907;-58
2021/11/26 02:33:38;;;;;;;;;;;19.20;40.90;;;;;;5135271;27;20001;-59
2021/11/26 02:36:04;;;;;;;;;;;19.20;40.90;;;;;;5135238;27;20274;-59
2021/11/26 02:38:29;;;;;;;;;;;19.30;40.90;;;;;;5134966;27;19915;-59
2021/11/26 02:40:55;;;;;;;;;;;19.20;40.90;;;;;;5134937;27;19964;-59
2021/11/26 02:43:21;;;;;;;;;;;19.20;40.90;;;;;;5134840;27;19908;-60
2021/11/26 02:45:46;;;;;;;;;;;19.20;41.00;;;;;;5134782;27;19915;-60
2021/11/26 02:48:13;;;;;;;;;;;19.30;40.90;;;;;;5134732;27;20368;-59
2021/11/26 02:50:38;;;;;;;;;;;19.20;40.90;;;;;;5134823;27;19908;-59
2021/11/26 02:53:04;;;;;;;;;;;19.20;41.00;;;;;;5134626;27;19936;-59
2021/11/26 02:55:31;;;;;;;;;;;19.20;40.90;;;;;;5134553;27;19908;-59
2021/11/26 02:57:57;;;;;;;;;;;19.20;41.00;;;;;;5134557;27;19916;-59
2021/11/26 03:00:25;;;;;;;;;;;19.30;41.00;;;;;;5134242;27;19927;-59
2021/11/26 03:02:51;;;;;;;;;;;19.20;41.00;;;;;;5134867;27;19908;-58
2021/11/26 03:05:17;;;;;;;;;;;19.20;41.00;;;;;;5116171;27;19907;-59
2021/11/26 03:07:43;;;;;;;;;;;19.20;41.00;;;;;;5134681;27;19998;-59
2021/11/26 03:10:09;;;;;;;;;;;19.20;41.00;;;;;;5134521;27;19907;-59
2021/11/26 03:12:35;;;;;;;;;;;19.20;41.00;;;;;;5134412;27;20350;-59
2021/11/26 03:15:01;;;;;;;;;;;19.20;41.00;;;;;;5134349;27;19911;-59
2021/11/26 03:17:27;;;;;;;;;;;19.20;41.00;;;;;;5134539;28;19907;-59
2021/11/26 03:19:52;;;;;;;;;;;19.20;41.00;;;;;;5134487;28;19908;-59
2021/11/26 03:22:18;;;;;;;;;;;19.20;41.00;;;;;;5134320;28;19946;-59
2021/11/26 03:24:43;;;;;;;;;;;19.20;41.00;;;;;;5134580;28;19907;-59
2021/11/26 03:27:09;;;;;;;;;;;19.20;41.00;;;;;;5134352;28;19918;-59
2021/11/26 03:29:34;;;;;;;;;;;19.20;41.00;;;;;;5134264;28;20385;-59
2021/11/26 03:32:00;;;;;;;;;;;19.20;41.00;;;;;;5134517;28;19907;-58
2021/11/26 03:34:25;;;;;;;;;;;19.20;41.00;;;;;;5134504;28;19912;-59
2021/11/26 03:36:51;;;;;;;;;;;19.20;41.00;;;;;;5134336;28;20000;-59
2021/11/26 03:39:16;;;;;;;;;;;19.20;41.00;;;;;;5134421;28;20372;-59
2021/11/26 03:41:42;;;;;;;;;;;19.20;41.00;;;;;;5134001;28;20286;-59
2021/11/26 03:44:07;;;;;;;;;;;19.20;41.00;;;;;;5134065;28;19914;-59
2021/11/26 03:46:33;;;;;;;;;;;19.20;40.90;;;;;;5134421;28;20014;-60
2021/11/26 03:48:58;;;;;;;;;;;19.20;41.00;;;;;;5134324;28;20263;-59
2021/11/26 03:51:24;;;;;;;;;;;19.20;41.00;;;;;;5134192;28;19918;-60
2021/11/26 03:53:49;;;;;;;;;;;19.20;41.00;;;;;;5134310;28;19954;-60
2021/11/26 03:56:15;;;;;;;;;;;19.20;41.00;;;;;;5133985;28;19925;-59
2021/11/26 03:58:40;;;;;;;;;;;19.20;41.00;;;;;;5133886;28;19920;-59
2021/11/26 04:01:06;;;;;;;;;;;19.20;40.90;;;;;;5134160;28;20002;-59
2021/11/26 04:03:31;;;;;;;;;;;19.20;41.00;;;;;;5133939;28;19907;-59
2021/11/26 04:05:57;;;;;;;;;;;19.20;40.90;;;;;;5115825;28;19907;-59
2021/11/26 04:08:22;;;;;;;;;;;19.10;41.00;;;;;;5134082;28;19908;-59
2021/11/26 04:10:48;;;;;;;;;;;19.20;41.00;;;;;;5133914;28;19907;-59
2021/11/26 04:13:15;;;;;;;;;;;19.10;41.00;;;;;;5137450;27;19907;-60
2021/11/26 04:15:41;;;;;;;;;;;19.10;41.00;;;;;;5137720;27;20467;-59
2021/11/26 04:18:07;;;;;;;;;;;19.10;41.00;;;;;;5137895;27;20018;-59
2021/11/26 04:20:33;;;;;;;;;;;19.20;41.00;;;;;;5137602;27;19908;-59
2021/11/26 04:22:59;;;;;;;;;;;19.10;41.00;;;;;;5137878;27;19908;-59
2021/11/26 04:25:24;;;;;;;;;;;19.10;40.90;;;;;;5137782;27;19914;-59
2021/11/26 04:27:50;;;;;;;;;;;19.10;41.00;;;;;;5137422;27;20321;-60
2021/11/26 04:30:16;;;;;;;;;;;19.10;41.00;;;;;;5137377;27;19908;-59
2021/11/26 04:32:42;;;;;;;;;;;19.10;41.00;;;;;;5137562;27;19960;-59
2021/11/26 04:35:08;;;;;;;;;;;19.20;41.00;;;;;;5137422;27;19908;-59
2021/11/26 04:37:33;;;;;;;;;;;19.10;41.00;;;;;;5137451;27;19911;-60
2021/11/26 04:39:59;;;;;;;;;;;19.10;40.90;;;;;;5137458;27;20035;-59
2021/11/26 04:42:24;;;;;;;;;;;19.10;41.00;;;;;;5137412;27;19912;-58
2021/11/26 04:44:50;;;;;;;;;;;19.10;41.00;;;;;;5137137;27;19908;-60
2021/11/26 04:47:15;;;;;;;;;;;19.10;41.00;;;;;;5137243;27;19908;-59
2021/11/26 04:49:41;;;;;;;;;;;19.10;41.00;;;;;;5137326;27;20434;-59
2021/11/26 04:52:06;;;;;;;;;;;19.10;41.00;;;;;;5137252;27;20264;-59
2021/11/26 04:54:32;;;;;;;;;;;19.10;41.00;;;;;;5137137;27;19907;-59
2021/11/26 04:56:57;;;;;;;;;;;19.10;41.00;;;;;;5136504;27;19926;-59
2021/11/26 04:59:23;;;;;;;;;;;19.10;41.00;;;;;;5136618;27;19916;-58
2021/11/26 05:01:48;;;;;;;;;;;19.10;41.00;;;;;;5136942;27;20335;-59
2021/11/26 05:04:14;;;;;;;;;;;19.10;41.00;;;;;;5136716;27;19915;-59
2021/11/26 05:06:39;;;;;;;;;;;19.10;41.00;;;;;;5136572;27;20354;-60
2021/11/26 05:09:06;;;;;;;;;;;19.10;41.00;;;;;;5136437;27;19919;-59
2021/11/26 05:11:32;;;;;;;;;;;19.10;41.00;;;;;;5136724;27;19960;-59
2021/11/26 05:13:58;;;;;;;;;;;19.10;41.00;;;;;;5136555;27;19914;-59
2021/11/26 05:16:24;;;;;;;;;;;19.10;41.00;;;;;;5136179;27;20266;-59
2021/11/26 05:18:49;;;;;;;;;;;19.20;41.00;;;;;;5136239;27;19915;-59
2021/11/26 05:21:14;;;;;;;;;;;19.10;41.00;;;;;;5136127;27;19911;-60
2021/11/26 05:23:40;;;;;;;;;;;19.20;40.90;;;;;;5135703;27;20434;-59
2021/11/26 05:26:07;;;;;;;;;;;19.20;40.90;;;;;;5136377;27;19915;-59
2021/11/26 05:28:32;;;;;;;;;;;19.20;40.90;;;;;;5136437;27;20350;-58
2021/11/26 05:30:58;;;;;;;;;;;19.20;40.80;;;;;;5136183;27;19934;-60
2021/11/26 05:33:24;;;;;;;;;;;19.30;40.80;;;;;;5136172;27;19914;-59
2021/11/26 05:35:49;;;;;;;;;;;19.30;40.80;;;;;;5136229;27;19908;-59
2021/11/26 05:38:15;;;;;;;;;;;19.30;40.80;;;;;;5135891;27;19943;-59
2021/11/26 05:40:40;;;;;;;;;;;19.30;40.80;;;;;;5135879;27;19908;-59
2021/11/26 05:43:06;;;;;;;;;;;19.40;40.80;;;;;;5136119;27;19908;-59
2021/11/26 05:45:31;;;;;;;;;;;19.40;40.80;;;;;;5136067;27;19981;-59
2021/11/26 05:47:57;;;;;;;;;;;19.40;40.80;;;;;;5136011;27;19918;-59
2021/11/26 05:50:23;;;;;;;;;;;19.40;40.70;;;;;;5135709;27;19961;-59
2021/11/26 05:52:48;;;;;;;;;;;19.40;40.70;;;;;;5135744;27;19950;-59
2021/11/26 05:55:17;;;;;;;;;;;19.50;40.80;;;;;;5135885;27;19999;-60
2021/11/26 05:57:43;;;;;;;;;;;19.40;40.70;;;;;;5135461;27;19945;-60
2021/11/26 06:00:10;;;;;;;;;;;19.50;40.70;;;;;;5135839;27;19911;-60
2021/11/26 06:02:35;;;;;;;;;;;19.50;40.80;;;;;;5135872;27;19911;-60
2021/11/26 06:05:01;;;;;;;;;;;19.50;40.70;;;;;;5135720;27;20374;-59
2021/11/26 06:07:26;;;;;;;;;;;19.50;40.70;;;;;;5135763;27;20136;-60
2021/11/26 06:09:52;;;;;;;;;;;19.50;40.70;;;;;;5135744;27;19960;-59
2021/11/26 06:12:17;;;;;;;;;;;19.50;40.70;;;;;;5135139;27;19952;-59
2021/11/26 06:14:43;;;;;;;;;;;19.50;40.70;;;;;;5135277;27;19915;-59
2021/11/26 06:17:08;;;;;;;;;;;19.50;40.70;;;;;;5135247;27;19954;-60
2021/11/26 06:19:34;;;;;;;;;;;19.50;40.70;;;;;;5135023;27;19916;-59
2021/11/26 06:22:00;;;;;;;;;;;19.50;40.70;;;;;;5135468;27;20002;-59
2021/11/26 06:24:26;;;;;;;;;;;19.50;40.70;;;;;;5135323;27;19951;-59
2021/11/26 06:26:51;;;;;;;;;;;19.50;40.70;;;;;;5135383;27;20341;-60
2021/11/26 06:29:17;;;;;;;;;;;19.50;40.70;;;;;;5135344;27;20278;-59
2021/11/26 06:31:42;;;;;;;;;;;19.50;40.70;;;;;;5134975;27;20265;-59
2021/11/26 06:34:07;;;;;;;;;;;19.50;40.70;;;;;;5134930;27;19915;-59
2021/11/26 06:36:33;;;;;;;;;;;19.60;40.70;;;;;;5133996;27;19907;-60
2021/11/26 06:39:00;;;;;;;;;;;19.50;40.70;;;;;;5134984;27;19916;-59
2021/11/26 06:41:25;;;;;;;;;;;19.60;40.80;;;;;;5135149;27;20289;-59
2021/11/26 06:43:50;;;;;;;;;;;19.50;40.70;;;;;;5135094;27;19915;-59
2021/11/26 06:46:16;;;;;;;;;;;19.50;40.80;;;;;;5134635;27;19934;-58
2021/11/26 06:48:41;;;;;;;;;;;19.60;40.80;;;;;;5134904;27;20075;-59
2021/11/26 06:51:07;;;;;;;;;;;19.60;40.80;;;;;;5135032;27;19914;-58
2021/11/26 06:53:32;;;;;;;;;;;19.50;40.80;;;;;;5134549;27;19908;-59
2021/11/26 06:55:58;;;;;;;;;;;19.60;40.80;;;;;;5134286;27;19915;-59
2021/11/26 06:58:23;;;;;;;;;;;19.60;40.80;;;;;;5134673;27;19966;-59
2021/11/26 07:00:49;;;;;;;;;;;19.60;40.80;;;;;;5134713;27;20395;-59
2021/11/26 07:03:14;;;;;;;;;;;19.60;40.80;;;;;;5134561;27;19918;-58
2021/11/26 07:05:40;;;;;;;;;;;19.60;40.80;;;;;;5134848;27;19914;-59
2021/11/26 07:08:05;;;;;;;;;;;19.50;40.80;;;;;;5134657;27;19913;-59
2021/11/26 07:10:31;;;;;;;;;;;19.60;40.80;;;;;;5134692;27;20274;-59
2021/11/26 07:12:56;;;;;;;;;;;19.60;40.80;;;;;;5134688;27;20280;-59
2021/11/26 07:15:22;;;;;;;;;;;19.60;40.80;;;;;;5134373;27;19911;-58
2021/11/26 07:17:47;;;;;;;;;;;19.60;40.80;;;;;;5134178;27;19923;-58
2021/11/26 07:20:14;;;;;;;;;;;19.60;40.80;;;;;;5134268;28;19908;-58
2021/11/26 07:22:39;;;;;;;;;;;19.60;40.80;;;;;;5134306;28;20292;-59
2021/11/26 07:25:05;;;;;;;;;;;19.60;40.80;;;;;;5134514;28;19965;-59
2021/11/26 07:27:32;;;;;;;;;;;19.60;40.80;;;;;;5115908;28;19930;-58
2021/11/26 07:29:58;;;;;;;;;;;19.60;40.80;;;;;;5134496;28;19907;-59
2021/11/26 07:32:23;;;;;;;;;;;19.70;40.80;;;;;;5134225;28;20011;-59
2021/11/26 07:34:50;;;;;;;;;;;19.60;40.80;;;;;;5134226;28;20346;-59
2021/11/26 07:37:17;;;;;;;;;;;19.70;40.80;;;;;;5134066;28;19940;-59
2021/11/26 07:39:43;;;;;;;;;;;19.60;40.80;;;;;;5134282;28;20075;-59
2021/11/26 07:42:10;;;;;;;;;;;19.70;40.80;;;;;;5134184;28;20368;-59
2021/11/26 07:44:36;;;;;;;;;;;19.60;40.80;;;;;;5134113;28;19912;-59
2021/11/26 07:47:03;;;;;;;;;;;19.70;40.80;;;;;;5135926;27;19908;-60
2021/11/26 07:49:28;;;;;;;;;;;19.70;40.80;;;;;;5138435;27;20266;-59
2021/11/26 07:51:58;;;;;;;;;;;19.70;40.80;;;;;;5138064;27;19914;-59
2021/11/26 07:54:24;;;;;;;;;;;19.70;40.80;;;;;;5138377;27;20045;-59
2021/11/26 07:56:50;;;;;;;;;;;19.70;40.80;;;;;;5137803;27;19964;-59
2021/11/26 07:59:15;;;;;;;;;;;19.70;40.80;;;;;;5137972;27;20158;-59
2021/11/26 08:01:41;;;;;;;;;;;19.70;40.80;;;;;;5137980;27;20002;-59
2021/11/26 08:04:06;;;;;;;;;;;19.70;40.90;;;;;;5137634;27;19907;-59
2021/11/26 08:06:32;;;;;;;;;;;19.70;40.80;;;;;;5137564;27;19954;-59
2021/11/26 08:08:57;;;;;;;;;;;19.70;40.80;;;;;;5137697;27;19953;-59
2021/11/26 08:11:23;;;;;;;;;;;19.70;40.80;;;;;;5137637;27;19937;-59
2021/11/26 08:13:48;;;;;;;;;;;19.70;40.90;;;;;;5137834;27;19941;-59
2021/11/26 08:16:14;;;;;;;;;;;19.70;40.90;;;;;;5137834;27;19952;-59
2021/11/26 08:18:39;;;;;;;;;;;19.70;40.90;;;;;;5119039;27;19915;-60
2021/11/26 08:21:05;;;;;;;;;;;19.70;40.90;;;;;;5137488;27;19911;-59
2021/11/26 08:23:30;;;;;;;;;;;19.70;40.90;;;;;;5137620;27;19908;-59
2021/11/26 08:25:58;;;;;;;;;;;19.70;40.90;;;;;;5137400;27;19907;-59
2021/11/26 08:28:24;;;;;;;;;;;19.70;40.90;;;;;;5137823;27;20294;-60
2021/11/26 08:30:49;;;;;;;;;;;19.70;40.90;;;;;;5137294;27;20375;-59
2021/11/26 08:33:14;;;;;;;;;;;19.70;40.90;;;;;;5137295;27;19918;-59
2021/11/26 08:35:40;;;;;;;;;;;19.70;40.90;;;;;;5137605;27;19913;-59
2021/11/26 08:38:05;;;;;;;;;;;19.70;40.90;;;;;;5137411;27;19926;-59
2021/11/26 08:40:31;;;;;;;;;;;19.70;40.90;;;;;;5137348;27;20364;-59
2021/11/26 08:42:56;;;;;;;;;;;19.70;40.90;;;;;;5137720;27;20300;-59
2021/11/26 08:45:22;;;;;;;;;;;19.70;40.90;;;;;;5137587;27;19995;-60
2021/11/26 08:47:48;;;;;;;;;;;19.70;41.00;;;;;;5136914;27;19907;-59
2021/11/26 08:50:15;;;;;;;;;;;19.70;40.90;;;;;;5137386;27;19914;-60
2021/11/26 08:52:42;;;;;;;;;;;19.70;40.90;;;;;;5137499;27;19922;-59
2021/11/26 08:55:11;;;;;;;;;;;19.70;40.90;;;;;;5136790;27;19951;-59
2021/11/26 08:57:38;;;;;;;;;;;19.70;40.90;;;;;;5136136;27;19927;-60
2021/11/26 09:00:05;;;;;;;;;;;19.70;40.90;;;;;;5136750;27;19919;-59
2021/11/26 09:02:30;;;;;;;;;;;19.80;40.90;;;;;;5136861;27;19914;-59
2021/11/26 09:04:56;;;;;;;;;;;19.70;40.90;;;;;;5136901;27;19908;-59
2021/11/26 09:07:21;;;;;;;;;;;19.80;40.90;;;;;;5136895;27;19907;-59
2021/11/26 09:09:47;;;;;;;;;;;19.70;40.90;;;;;;5136583;27;20006;-59
2021/11/26 09:12:12;;;;;;;;;;;19.70;40.90;;;;;;5136459;27;19908;-59
2021/11/26 09:14:38;;;;;;;;;;;19.80;40.90;;;;;;5136622;27;19914;-59
2021/11/26 09:17:04;;;;;;;;;;;19.70;40.90;;;;;;5136799;27;19914;-59
2021/11/26 09:19:29;;;;;;;;;;;19.70;40.80;;;;;;5136326;27;19915;-60
2021/11/26 09:21:55;;;;;;;;;;;19.70;40.90;;;;;;5136554;27;19911;-59
2021/11/26 09:24:20;;;;;;;;;;;19.80;40.90;;;;;;5136448;27;19994;-60
2021/11/26 09:26:45;;;;;;;;;;;19.80;40.90;;;;;;5136334;27;19946;-59
2021/11/26 09:29:11;;;;;;;;;;;19.70;40.90;;;;;;5136415;27;19983;-59
2021/11/26 09:31:36;;;;;;;;;;;19.70;40.90;;;;;;5136093;27;19952;-59
2021/11/26 09:34:04;;;;;;;;;;;19.80;40.90;;;;;;5136012;27;20002;-59
2021/11/26 09:36:34;;;;;;;;;;;19.80;40.90;;;;;;5136151;27;19913;-58
2021/11/26 09:38:59;;;;;;;;;;;19.80;40.90;;;;;;5136279;27;19916;-60
2021/11/26 09:41:26;;;;;;;;;;;19.80;40.90;;;;;;5135883;27;19964;-59
2021/11/26 09:43:52;;;;;;;;;;;19.80;40.90;;;;;;5135928;27;19933;-59
2021/11/26 09:46:19;;;;;;;;;;;19.80;40.90;;;;;;5136203;27;20319;-60
2021/11/26 09:48:45;;;;;;;;;;;19.80;40.90;;;;;;5135971;27;20015;-60
2021/11/26 09:51:11;;;;;;;;;;;19.80;40.90;;;;;;5135781;27;20002;-59
2021/11/26 09:53:37;;;;;;;;;;;19.80;40.90;;;;;;5135970;27;20012;-59
2021/11/26 09:56:05;;;;;;;;;;;19.80;40.90;;;;;;5135605;27;20366;-59
2021/11/26 09:58:31;;;;;;;;;;;19.80;40.90;;;;;;5135463;27;19916;-59
2021/11/26 10:00:58;;;;;;;;;;;19.80;40.90;;;;;;5135613;27;19908;-59
2021/11/26 10:03:34;;;;;;;;;;;19.80;40.90;;;;;;5135765;27;19986;-59
2021/11/26 10:05:59;;;;;;;;;;;19.80;40.90;;;;;;5135273;27;19914;-59
2021/11/26 10:08:25;;;;;;;;;;;19.80;40.90;;;;;;5117368;27;20002;-59
2021/11/26 10:10:57;;;;;;;;;;;19.80;40.90;;;;;;5135236;27;20342;-59
2021/11/26 10:13:22;;;;;;;;;;;19.70;40.90;;;;;;5135138;27;19960;-59
2021/11/26 10:15:53;;;;;;;;;;;19.70;40.90;;;;;;5135346;27;19926;-59
2021/11/26 10:18:20;;;;;;;;;;;19.70;40.90;;;;;;5135387;27;19916;-59
2021/11/26 10:20:54;;;;;;;;;;;19.80;40.90;;;;;;5135087;27;19964;-60
2021/11/26 10:23:21;;;;;;;;;;;19.70;40.90;;;;;;5135015;27;20362;-59
2021/11/26 10:25:47;;;;;;;;;;;19.70;40.90;;;;;;5135441;27;19908;-59
2021/11/26 10:28:12;;;;;;;;;;;19.70;40.80;;;;;;5135134;27;19907;-59
2021/11/26 10:30:40;;;;;;;;;;;19.70;40.90;;;;;;5135302;27;19907;-60
2021/11/26 10:33:24;;;;;;;;;;;19.80;40.90;;;;;;5135117;27;19918;-59
2021/11/26 10:35:57;;;;;;;;;;;19.70;40.90;;;;;;5134972;27;19954;-59
2021/11/26 10:38:26;;;;;;;;;;;19.70;40.80;;;;;;5134650;27;19971;-60
2021/11/26 10:40:54;;;;;;;;;;;19.80;40.80;;;;;;5135152;27;19907;-60
2021/11/26 10:43:21;;;;;;;;;;;19.70;40.90;;;;;;5135233;27;20056;-59
2021/11/26 10:48:47;;;;;;;;;;;19.70;40.80;;;;;;5135082;27;19994;-59
2021/11/26 10:59:11;;;;;;;;;;;19.70;40.80;;;;;;5134731;27;20014;-59
2021/11/26 11:01:43;;;;;;;;;;;19.70;40.80;;;;;;5134643;27;19939;-59
2021/11/26 11:04:16;;;;;;;;;;;19.70;40.80;;;;;;5135047;27;19972;-59
2021/11/26 11:06:43;;;;;;;;;;;19.80;40.70;;;;;;5134814;27;19937;-59
2021/11/26 11:09:10;;;;;;;;;;;19.70;40.70;;;;;;5134613;27;19951;-59
2021/11/26 11:11:36;;;;;;;;;;;19.70;40.70;;;;;;5134535;27;20290;-59
2021/11/26 11:14:15;;;;;;;;;;;19.70;40.70;;;;;;5134399;27;19907;-59
2021/11/26 11:16:47;;;;;;;;;;;19.70;40.70;;;;;;5134742;27;20358;-61
2021/11/26 11:19:13;;;;;;;;;;;19.80;40.70;;;;;;5134896;27;20343;-60
2021/11/26 11:21:39;;;;;;;;;;;19.80;40.70;;;;;;5134251;27;19914;-59
2021/11/26 11:24:05;;;;;;;;;;;19.70;40.70;;;;;;5134663;28;20354;-60
2021/11/26 11:26:31;;;;;;;;;;;19.80;40.70;;;;;;5134617;28;19907;-60
2021/11/26 11:28:56;;;;;;;;;;;19.80;40.60;;;;;;5134999;28;19914;-59
2021/11/26 11:31:22;;;;;;;;;;;19.80;40.60;;;;;;5134419;28;20370;-59
2021/11/26 11:33:48;;;;;;;;;;;19.80;40.60;;;;;;5134344;28;19907;-59
2021/11/26 11:36:14;;;;;;;;;;;19.70;40.60;;;;;;5134508;28;19907;-60
2021/11/26 11:38:40;;;;;;;;;;;19.70;40.60;;;;;;5134665;28;20489;-60
2021/11/26 11:41:07;;;;;;;;;;;19.80;40.60;;;;;;5134413;28;19918;-59
2021/11/26 11:43:43;;;;;;;;;;;19.80;40.60;;;;;;5134383;28;19917;-59
2021/11/26 11:46:12;;;;;;;;;;;19.70;40.50;;;;;;5134038;28;19907;-59
2021/11/26 11:48:40;;;;;;;;;;;19.80;40.60;;;;;;5134259;28;19949;-59
2021/11/26 11:51:07;;;;;;;;;;;19.80;40.50;;;;;;5133973;28;20366;-59
2021/11/26 11:53:34;;;;;;;;;;;19.70;40.50;;;;;;5133578;28;19907;-59
2021/11/26 11:56:02;;;;;;;;;;;19.80;40.40;;;;;;5133680;28;20271;-60
2021/11/26 11:58:37;;;;;;;;;;;19.80;40.50;;;;;;5134399;28;19919;-59
2021/11/26 12:01:02;;;;;;;;;;;19.80;40.60;;;;;;5134611;28;19950;-59
2021/11/26 12:03:28;;;;;;;;;;;19.80;40.50;;;;;;5134397;28;19960;-60
2021/11/26 12:05:54;;;;;;;;;;;19.80;40.50;;;;;;5134058;28;19990;-59
2021/11/26 12:08:19;;;;;;;;;;;19.90;40.50;;;;;;5134273;28;20201;-59
2021/11/26 12:10:48;;;;;;;;;;;19.80;40.50;;;;;;5134477;28;20378;-60
2021/11/26 12:13:17;;;;;;;;;;;19.80;40.50;;;;;;5134248;28;20010;-60
2021/11/26 12:15:43;;;;;;;;;;;19.80;40.50;;;;;;5133725;28;20300;-59
2021/11/26 12:18:08;;;;;;;;;;;19.80;40.50;;;;;;5133712;28;19956;-59
2021/11/26 12:20:35;;;;;;;;;;;19.80;40.40;;;;;;5133872;28;20377;-59
2021/11/26 12:23:11;;;;;;;;;;;19.80;40.40;;;;;;5133981;28;19914;-59
2021/11/26 12:28:20;;;;;;;;;;;19.70;40.40;;;;;;5133993;28;19907;-59
2021/11/26 12:30:56;;;;;;;;;;;19.70;40.40;;;;;;5133865;28;19916;-59
2021/11/26 12:33:23;;;;;;;;;;;19.70;40.50;;;;;;5134684;27;20258;-59
2021/11/26 12:35:56;;;;;;;;;;;19.70;40.50;;;;;;5137705;27;19908;-59
2021/11/26 12:38:22;;;;;;;;;;;19.70;40.40;;;;;;5137404;27;20282;-59
2021/11/26 12:40:47;;;;;;;;;;;19.60;40.30;;;;;;5137475;27;19908;-60
2021/11/26 12:43:13;;;;;;;;;;;19.70;40.50;;;;;;5137144;27;19911;-59
2021/11/26 12:45:38;;;;;;;;;;;19.60;40.40;;;;;;5137217;27;19977;-59
2021/11/26 12:48:08;;;;;;;;;;;19.60;40.30;;;;;;5137339;27;19907;-59
2021/11/26 12:53:23;;;;;;;;;;;19.70;40.30;;;;;;5137468;27;19940;-59
2021/11/26 12:55:54;;;;;;;;;;;19.60;40.20;;;;;;5137017;27;19911;-59
2021/11/26 12:58:20;;;;;;;;;;;19.70;40.30;;;;;;5136605;27;19920;-59
2021/11/26 13:00:56;;;;;;;;;;;19.60;40.20;;;;;;5137098;27;20060;-58
2021/11/26 13:03:22;;;;;;;;;;;19.60;40.20;;;;;;5136896;27;20398;-59
2021/11/26 13:05:52;;;;;;;;;;;19.70;40.30;;;;;;5136682;27;19931;-60
2021/11/26 13:08:17;;;;;;;;;;;19.70;40.20;;;;;;5136824;27;19907;-60
2021/11/26 13:10:43;;;;;;;;;;;19.70;40.20;;;;;;5136370;27;19908;-59
2021/11/26 13:13:08;;;;;;;;;;;19.60;40.20;;;;;;5136687;27;20378;-59
2021/11/26 13:15:35;;;;;;;;;;;19.70;40.20;;;;;;5136135;27;19907;-59
2021/11/26 13:18:03;;;;;;;;;;;19.60;40.20;;;;;;5136440;27;19989;-59
2021/11/26 13:20:33;;;;;;;;;;;19.70;40.10;;;;;;5136478;27;19907;-59
2021/11/26 13:23:02;;;;;;;;;;;19.70;40.10;;;;;;5136788;27;19907;-58
2021/11/26 13:25:29;;;;;;;;;;;19.60;40.10;;;;;;5136929;27;20287;-59
2021/11/26 13:27:59;;;;;;;;;;;19.70;40.10;;;;;;5136189;27;19908;-59
2021/11/26 13:30:28;;;;;;;;;;;19.70;40.10;;;;;;5136512;27;19911;-59
2021/11/26 13:33:06;;;;;;;;;;;19.60;40.00;;;;;;5136330;27;19908;-59
2021/11/26 13:35:31;;;;;;;;;;;19.70;40.00;;;;;;5136511;27;19931;-59
2021/11/26 13:37:58;;;;;;;;;;;19.70;39.90;;;;;;5136079;27;20276;-60
2021/11/26 13:40:33;;;;;;;;;;;19.70;40.00;;;;;;5136220;27;19918;-59
2021/11/26 13:43:00;;;;;;;;;;;19.60;40.00;;;;;;5136182;27;19990;-59
2021/11/26 13:45:29;;;;;;;;;;;19.70;39.90;;;;;;5135633;27;20354;-59
2021/11/26 13:47:55;;;;;;;;;;;19.70;40.00;;;;;;5135790;27;19907;-59
2021/11/26 13:50:20;;;;;;;;;;;19.70;40.00;;;;;;5135804;27;19952;-60
2021/11/26 13:52:46;;;;;;;;;;;19.60;40.00;;;;;;5136030;27;19951;-59
2021/11/26 13:55:13;;;;;;;;;;;19.70;39.90;;;;;;5135767;27;19908;-59
2021/11/26 13:57:38;;;;;;;;;;;19.60;39.90;;;;;;5135488;27;19919;-59
2021/11/26 14:00:06;;;;;;;;;;;19.60;39.90;;;;;;5135706;27;19911;-59
2021/11/26 14:02:31;;;;;;;;;;;19.60;39.90;;;;;;5135643;27;20270;-59
2021/11/26 14:04:57;;;;;;;;;;;19.60;39.90;;;;;;5135992;27;19907;-59
2021/11/26 14:07:24;;;;;;;;;;;19.70;39.90;;;;;;5135784;27;20251;-59
2021/11/26 14:09:52;;;;;;;;;;;19.60;39.90;;;;;;5135697;27;20277;-59
2021/11/26 14:12:20;;;;;;;;;;;19.70;39.90;;;;;;5135547;27;19997;-59
2021/11/26 14:14:46;;;;;;;;;;;19.60;39.80;;;;;;5135733;27;19915;-59
2021/11/26 14:17:13;;;;;;;;;;;19.60;39.90;;;;;;5135607;27;19914;-59
2021/11/26 14:19:40;;;;;;;;;;;19.60;39.80;;;;;;5135456;27;19915;-59
2021/11/26 14:22:08;;;;;;;;;;;19.60;39.90;;;;;;5135280;27;20262;-60
2021/11/26 14:24:35;;;;;;;;;;;19.70;39.80;;;;;;5135083;27;19976;-59
2021/11/26 14:27:01;;;;;;;;;;;19.60;39.80;;;;;;5135137;27;19915;-59
2021/11/26 14:29:28;;;;;;;;;;;19.60;39.80;;;;;;5135051;27;20266;-59
2021/11/26 14:31:54;;;;;;;;;;;19.70;39.80;;;;;;5135146;27;20384;-60
2021/11/26 14:34:20;;;;;;;;;;;19.60;39.80;;;;;;5135225;27;19911;-59
2021/11/26 14:36:47;;;;;;;;;;;19.70;39.80;;;;;;5134807;27;19911;-60
2021/11/26 14:39:13;;;;;;;;;;;19.60;39.80;;;;;;5134930;27;19916;-60
2021/11/26 14:41:39;;;;;;;;;;;19.60;39.70;;;;;;5134962;27;19927;-59
2021/11/26 14:44:08;;;;;;;;;;;19.60;39.70;;;;;;5134622;27;20409;-59
2021/11/26 14:46:48;;;;;;;;;;;19.70;39.70;;;;;;5134582;27;20315;-59
2021/11/26 14:49:14;;;;;;;;;;;19.70;39.70;;;;;;5134804;27;19908;-59